Check out our new PWSWeather beta!
PWSweather.com
Personal Weather Stations
Station Observations
GIRWX1
Presovsky Kraj, GiraltovceSK

Presovsky KrajGiraltovceSK

Lat: 49.118, Lon: 21.52

Elevation: 630

Station Type: wh1080

http://www.meteogiraltovce.wz.cz/

High Low Average
Temperature 63.7°F17.6°C 46.9°F8.3°C 57.0°F13.9°C
Dew Point 49.5°F9.7°C 41.7°F5.4°C 46.5°F8.1°C
Winds 20.7 mph 33.3 kmh Calm Calm 6.0 mph SSE9.7 kmh SSE
Wind Gusts 29.8 mph48.0 kmh 0.7 mph1.1 kmh 9.0 mph14.5 kmh
Humidity 85% 53% 69%
Pressure 29.71 in1006.1 mb 29.60 in1002.4 mb -
Precipitation 0.06 in1.5 mm - -
Hour Temp Dew Point Humidity Winds Wind Gusts Pressure Precip Precip Rate Daily Precip Total
12:00 AM 61.2°F16.2°C 45.3°F7.4°C 56% 17.5 mph SE28.2 kmh SE 25.1 mph40.4 kmh 29.71 in1006.1 mb 0.00 in0.0 mm 0.00 in0.0 mm 0.00 in0.0 mm
12:05 AM 61.2°F16.2°C 45.3°F7.4°C 56% 13.6 mph S21.9 kmh S 18.3 mph29.5 kmh 29.71 in1006.1 mb 0.00 in0.0 mm 0.00 in0.0 mm 0.00 in0.0 mm
12:10 AM 61.3°F16.3°C 45.4°F7.4°C 56% 12.1 mph S19.5 kmh S 18.3 mph29.5 kmh 29.71 in1006.1 mb 0.00 in0.0 mm 0.00 in0.0 mm 0.00 in0.0 mm
12:15 AM 61.3°F16.3°C 45.5°F7.5°C 56% 12.6 mph SE20.3 kmh SE 20.6 mph33.2 kmh 29.71 in1006.1 mb 0.00 in0.0 mm 0.00 in0.0 mm 0.00 in0.0 mm
12:20 AM 61.3°F16.3°C 45.5°F7.5°C 56% 16.3 mph S26.2 kmh S 22.8 mph36.7 kmh 29.71 in1006.1 mb 0.00 in0.0 mm 0.00 in0.0 mm 0.00 in0.0 mm
12:25 AM 61.3°F16.3°C 45.5°F7.5°C 56% 12.5 mph S20.1 kmh S 18.3 mph29.5 kmh 29.71 in1006.1 mb 0.00 in0.0 mm 0.00 in0.0 mm 0.00 in0.0 mm
12:30 AM 61.3°F16.3°C 45.5°F7.5°C 56% 11.6 mph SSE18.7 kmh SSE 18.3 mph29.5 kmh 29.71 in1006.1 mb 0.00 in0.0 mm 0.00 in0.0 mm 0.00 in0.0 mm
12:35 AM 61.3°F16.3°C 45.5°F7.5°C 56% 14.1 mph S22.7 kmh S 22.1 mph35.6 kmh 29.71 in1006.1 mb 0.00 in0.0 mm 0.00 in0.0 mm 0.00 in0.0 mm
12:40 AM 61.4°F16.3°C 45.6°F7.6°C 56% 15.4 mph S24.8 kmh S 19.7 mph31.7 kmh 29.71 in1006.1 mb 0.00 in0.0 mm 0.00 in0.0 mm 0.00 in0.0 mm
12:45 AM 61.5°F16.4°C 45.7°F7.6°C 56% 12.1 mph SSE19.5 kmh SSE 18.3 mph29.5 kmh 29.71 in1006.1 mb 0.00 in0.0 mm 0.00 in0.0 mm 0.00 in0.0 mm
12:50 AM 61.5°F16.4°C 45.7°F7.6°C 56% 11.7 mph SSW18.8 kmh SSW 16.8 mph27.0 kmh 29.71 in1006.1 mb 0.00 in0.0 mm 0.00 in0.0 mm 0.00 in0.0 mm
12:55 AM 61.5°F16.4°C 45.7°F7.6°C 56% 10.6 mph SSE17.1 kmh SSE 16.8 mph27.0 kmh 29.71 in1006.1 mb 0.00 in0.0 mm 0.00 in0.0 mm 0.00 in0.0 mm
01:00 AM 61.5°F16.4°C 45.7°F7.6°C 56% 12.6 mph S20.3 kmh S 17.4 mph28.0 kmh 29.71 in1006.1 mb 0.00 in0.0 mm 0.00 in0.0 mm 0.00 in0.0 mm
01:05 AM 61.5°F16.4°C 45.7°F7.6°C 56% 12.1 mph S19.5 kmh S 18.3 mph29.5 kmh 29.71 in1006.1 mb 0.00 in0.0 mm 0.00 in0.0 mm 0.00 in0.0 mm
01:10 AM 61.5°F16.4°C 45.7°F7.6°C 56% 10.1 mph S16.3 kmh S 13.6 mph21.9 kmh 29.71 in1006.1 mb 0.00 in0.0 mm 0.00 in0.0 mm 0.00 in0.0 mm
01:15 AM 61.5°F16.4°C 45.8°F7.7°C 56% 10.5 mph SSW16.9 kmh SSW 14.5 mph23.3 kmh 29.71 in1006.1 mb 0.00 in0.0 mm 0.00 in0.0 mm 0.00 in0.0 mm
01:20 AM 61.5°F16.4°C 46.1°F7.8°C 57% 10.7 mph SSE17.2 kmh SSE 15.2 mph24.5 kmh 29.71 in1006.1 mb 0.00 in0.0 mm 0.00 in0.0 mm 0.00 in0.0 mm
01:25 AM 61.5°F16.4°C 46.1°F7.8°C 57% 14.0 mph SSE22.5 kmh SSE 20.6 mph33.2 kmh 29.71 in1006.1 mb 0.00 in0.0 mm 0.00 in0.0 mm 0.00 in0.0 mm
01:30 AM 61.5°F16.4°C 46.1°F7.8°C 57% 10.1 mph SSW16.3 kmh SSW 17.4 mph28.0 kmh 29.71 in1006.1 mb 0.00 in0.0 mm 0.00 in0.0 mm 0.00 in0.0 mm
01:35 AM 61.5°F16.4°C 46.1°F7.8°C 57% 10.2 mph S16.4 kmh S 14.5 mph23.3 kmh 29.71 in1006.1 mb 0.00 in0.0 mm 0.00 in0.0 mm 0.00 in0.0 mm
01:40 AM 61.4°F16.3°C 46.4°F8.0°C 58% 10.0 mph S16.1 kmh S 13.6 mph21.9 kmh 29.71 in1006.1 mb 0.00 in0.0 mm 0.00 in0.0 mm 0.00 in0.0 mm
01:45 AM 61.3°F16.3°C 46.4°F8.0°C 58% 9.9 mph S15.9 kmh S 15.2 mph24.5 kmh 29.70 in1005.8 mb 0.00 in0.0 mm 0.00 in0.0 mm 0.00 in0.0 mm
01:50 AM 61.3°F16.3°C 46.4°F8.0°C 58% 10.6 mph S17.1 kmh S 15.2 mph24.5 kmh 29.71 in1006.1 mb 0.00 in0.0 mm 0.00 in0.0 mm 0.00 in0.0 mm
01:55 AM 61.2°F16.2°C 46.7°F8.2°C 59% 7.3 mph S11.7 kmh S 11.4 mph18.3 kmh 29.70 in1005.8 mb 0.00 in0.0 mm 0.00 in0.0 mm 0.00 in0.0 mm
02:00 AM 61.2°F16.2°C 46.7°F8.2°C 59% 8.1 mph S13.0 kmh S 10.7 mph17.2 kmh 29.70 in1005.8 mb 0.00 in0.0 mm 0.00 in0.0 mm 0.00 in0.0 mm
02:05 AM 61.2°F16.2°C 46.7°F8.2°C 59% 6.0 mph SE9.7 kmh SE 7.6 mph12.2 kmh 29.70 in1005.8 mb 0.00 in0.0 mm 0.00 in0.0 mm 0.00 in0.0 mm
02:10 AM 61.1°F16.2°C 46.9°F8.3°C 60% 7.2 mph SE11.6 kmh SE 11.4 mph18.3 kmh 29.70 in1005.8 mb 0.00 in0.0 mm 0.00 in0.0 mm 0.00 in0.0 mm
02:15 AM 61.0°F16.1°C 47.0°F8.3°C 60% 5.6 mph S9.0 kmh S 8.3 mph13.4 kmh 29.70 in1005.8 mb 0.00 in0.0 mm 0.00 in0.0 mm 0.00 in0.0 mm
02:20 AM 60.9°F16.1°C 46.9°F8.3°C 60% 7.5 mph SSE12.1 kmh SSE 12.1 mph19.5 kmh 29.70 in1005.8 mb 0.00 in0.0 mm 0.00 in0.0 mm 0.00 in0.0 mm
02:25 AM 60.8°F16.0°C 46.8°F8.2°C 60% 5.3 mph S8.5 kmh S 9.2 mph14.8 kmh 29.70 in1005.8 mb 0.00 in0.0 mm 0.00 in0.0 mm 0.00 in0.0 mm
02:30 AM 60.8°F16.0°C 46.8°F8.2°C 60% 5.7 mph S9.2 kmh S 9.2 mph14.8 kmh 29.70 in1005.8 mb 0.00 in0.0 mm 0.00 in0.0 mm 0.00 in0.0 mm
02:35 AM 60.8°F16.0°C 46.8°F8.2°C 60% 7.1 mph SSE11.4 kmh SSE 10.7 mph17.2 kmh 29.70 in1005.8 mb 0.00 in0.0 mm 0.00 in0.0 mm 0.00 in0.0 mm
02:40 AM 60.8°F16.0°C 46.8°F8.2°C 60% 7.6 mph SSE12.2 kmh SSE 10.7 mph17.2 kmh 29.70 in1005.8 mb 0.00 in0.0 mm 0.00 in0.0 mm 0.00 in0.0 mm
02:45 AM 60.8°F16.0°C 46.8°F8.2°C 60% 6.5 mph S10.5 kmh S 9.8 mph15.8 kmh 29.70 in1005.8 mb 0.00 in0.0 mm 0.00 in0.0 mm 0.00 in0.0 mm
02:50 AM 60.8°F16.0°C 46.8°F8.2°C 60% 5.9 mph S9.5 kmh S 9.2 mph14.8 kmh 29.70 in1005.8 mb 0.00 in0.0 mm 0.00 in0.0 mm 0.00 in0.0 mm
02:55 AM 60.8°F16.0°C 46.8°F8.2°C 60% 7.3 mph S11.7 kmh S 12.1 mph19.5 kmh 29.70 in1005.8 mb 0.00 in0.0 mm 0.00 in0.0 mm 0.00 in0.0 mm
03:00 AM 60.8°F16.0°C 46.8°F8.2°C 60% 5.7 mph S9.2 kmh S 10.7 mph17.2 kmh 29.70 in1005.8 mb 0.00 in0.0 mm 0.00 in0.0 mm 0.00 in0.0 mm
03:05 AM 60.8°F16.0°C 46.8°F8.2°C 60% 5.1 mph SSE8.2 kmh SSE 7.6 mph12.2 kmh 29.70 in1005.8 mb 0.00 in0.0 mm 0.00 in0.0 mm 0.00 in0.0 mm
03:10 AM 60.8°F16.0°C 46.8°F8.2°C 60% 6.6 mph SSE10.6 kmh SSE 11.4 mph18.3 kmh 29.70 in1005.8 mb 0.00 in0.0 mm 0.00 in0.0 mm 0.00 in0.0 mm
03:15 AM 60.7°F15.9°C 46.8°F8.2°C 60% 5.7 mph SE9.2 kmh SE 9.8 mph15.8 kmh 29.69 in1005.4 mb 0.00 in0.0 mm 0.00 in0.0 mm 0.00 in0.0 mm
03:20 AM 60.6°F15.9°C 46.7°F8.2°C 60% 5.9 mph S9.5 kmh S 9.8 mph15.8 kmh 29.70 in1005.8 mb 0.00 in0.0 mm 0.00 in0.0 mm 0.00 in0.0 mm
03:25 AM 60.6°F15.9°C 46.6°F8.1°C 60% 5.0 mph SSW8.0 kmh SSW 7.6 mph12.2 kmh 29.70 in1005.8 mb 0.00 in0.0 mm 0.00 in0.0 mm 0.00 in0.0 mm
03:30 AM 60.4°F15.8°C 46.5°F8.1°C 60% 6.2 mph S10.0 kmh S 9.8 mph15.8 kmh 29.69 in1005.4 mb 0.00 in0.0 mm 0.00 in0.0 mm 0.00 in0.0 mm
03:35 AM 60.3°F15.7°C 46.6°F8.1°C 61% 4.5 mph SE7.2 kmh SE 11.4 mph18.3 kmh 29.69 in1005.4 mb 0.00 in0.0 mm 0.00 in0.0 mm 0.00 in0.0 mm
03:40 AM 60.1°F15.6°C 46.6°F8.1°C 61% 6.6 mph SSE10.6 kmh SSE 11.4 mph18.3 kmh 29.69 in1005.4 mb 0.00 in0.0 mm 0.00 in0.0 mm 0.00 in0.0 mm
03:45 AM 60.1°F15.6°C 46.6°F8.1°C 61% 5.8 mph SE9.3 kmh SE 9.2 mph14.8 kmh 29.69 in1005.4 mb 0.00 in0.0 mm 0.00 in0.0 mm 0.00 in0.0 mm
03:50 AM 60.0°F15.6°C 46.5°F8.1°C 61% 7.3 mph SSE11.7 kmh SSE 10.7 mph17.2 kmh 29.69 in1005.4 mb 0.00 in0.0 mm 0.00 in0.0 mm 0.00 in0.0 mm
03:55 AM 59.9°F15.5°C 46.4°F8.0°C 61% 6.1 mph SSE9.8 kmh SSE 9.2 mph14.8 kmh 29.69 in1005.4 mb 0.00 in0.0 mm 0.00 in0.0 mm 0.00 in0.0 mm
04:00 AM 59.8°F15.4°C 46.6°F8.1°C 62% 4.3 mph SSE6.9 kmh SSE 6.9 mph11.1 kmh 29.68 in1005.1 mb 0.00 in0.0 mm 0.00 in0.0 mm 0.00 in0.0 mm
04:05 AM 59.7°F15.4°C 46.7°F8.2°C 62% 3.8 mph SE6.1 kmh SE 5.4 mph8.7 kmh 29.68 in1005.1 mb 0.00 in0.0 mm 0.00 in0.0 mm 0.00 in0.0 mm
04:10 AM 59.5°F15.3°C 46.7°F8.2°C 62% 4.1 mph SE6.6 kmh SE 6.0 mph9.7 kmh 29.68 in1005.1 mb 0.00 in0.0 mm 0.00 in0.0 mm 0.00 in0.0 mm
04:15 AM 59.0°F15.0°C 46.9°F8.3°C 64% 3.9 mph ESE6.3 kmh ESE 6.0 mph9.7 kmh 29.68 in1005.1 mb 0.01 in0.3 mm 0.12 in3.0 mm 0.01 in0.3 mm
04:20 AM 58.6°F14.8°C 47.0°F8.3°C 65% 4.1 mph SSE6.6 kmh SSE 7.6 mph12.2 kmh 29.68 in1005.1 mb 0.01 in0.3 mm 0.00 in0.0 mm 0.01 in0.3 mm
04:25 AM 58.2°F14.6°C 47.0°F8.3°C 66% 3.6 mph SW5.8 kmh SW 7.6 mph12.2 kmh 29.68 in1005.1 mb 0.01 in0.3 mm 0.00 in0.0 mm 0.01 in0.3 mm
04:30 AM 57.8°F14.3°C 47.0°F8.3°C 67% 3.0 mph S4.8 kmh S 6.0 mph9.7 kmh 29.68 in1005.1 mb 0.01 in0.3 mm 0.00 in0.0 mm 0.01 in0.3 mm
04:35 AM 57.5°F14.2°C 47.2°F8.4°C 68% 3.8 mph SW6.1 kmh SW 7.6 mph12.2 kmh 29.68 in1005.1 mb 0.01 in0.3 mm 0.00 in0.0 mm 0.01 in0.3 mm
04:40 AM 57.3°F14.1°C 47.4°F8.6°C 70% 5.2 mph SSW8.4 kmh SSW 7.6 mph12.2 kmh 29.69 in1005.4 mb 0.01 in0.3 mm 0.00 in0.0 mm 0.01 in0.3 mm
04:45 AM 57.2°F14.0°C 47.5°F8.6°C 70% 3.4 mph SW5.5 kmh SW 5.4 mph8.7 kmh 29.68 in1005.1 mb 0.01 in0.3 mm 0.00 in0.0 mm 0.01 in0.3 mm
04:50 AM 57.0°F13.9°C 47.3°F8.5°C 70% 1.9 mph NE3.1 kmh NE 3.8 mph6.1 kmh 29.68 in1005.1 mb 0.01 in0.3 mm 0.00 in0.0 mm 0.01 in0.3 mm
04:55 AM 56.7°F13.7°C 47.1°F8.4°C 70% 3.1 mph NE5.0 kmh NE 4.5 mph7.2 kmh 29.68 in1005.1 mb 0.01 in0.3 mm 0.00 in0.0 mm 0.01 in0.3 mm
05:00 AM 56.2°F13.4°C 46.9°F8.3°C 71% 3.3 mph NE5.3 kmh NE 5.4 mph8.7 kmh 29.68 in1005.1 mb 0.01 in0.3 mm 0.00 in0.0 mm 0.01 in0.3 mm
05:05 AM 55.8°F13.2°C 46.8°F8.2°C 72% 3.0 mph ENE4.8 kmh ENE 3.8 mph6.1 kmh 29.67 in1004.7 mb 0.01 in0.3 mm 0.00 in0.0 mm 0.01 in0.3 mm
05:10 AM 55.7°F13.2°C 46.8°F8.2°C 72% 2.3 mph NE3.7 kmh NE 3.8 mph6.1 kmh 29.68 in1005.1 mb 0.01 in0.3 mm 0.00 in0.0 mm 0.01 in0.3 mm
05:15 AM 55.6°F13.1°C 46.7°F8.2°C 72% 2.0 mph NE3.2 kmh NE 3.8 mph6.1 kmh 29.68 in1005.1 mb 0.01 in0.3 mm 0.00 in0.0 mm 0.01 in0.3 mm
05:20 AM 55.5°F13.1°C 46.9°F8.3°C 73% 2.6 mph ENE4.2 kmh ENE 3.8 mph6.1 kmh 29.67 in1004.7 mb 0.01 in0.3 mm 0.00 in0.0 mm 0.01 in0.3 mm
05:25 AM 55.4°F13.0°C 46.9°F8.3°C 73% 2.7 mph ENE4.3 kmh ENE 3.8 mph6.1 kmh 29.68 in1005.1 mb 0.00 in0.0 mm 0.00 in0.0 mm 0.01 in0.3 mm
05:30 AM 55.6°F13.1°C 47.1°F8.4°C 73% 2.7 mph NE4.3 kmh NE 3.8 mph6.1 kmh 29.67 in1004.7 mb 0.00 in0.0 mm 0.00 in0.0 mm 0.01 in0.3 mm
05:35 AM 55.6°F13.1°C 47.1°F8.4°C 73% 1.2 mph NW1.9 kmh NW 2.2 mph3.5 kmh 29.67 in1004.7 mb 0.00 in0.0 mm 0.00 in0.0 mm 0.01 in0.3 mm
05:40 AM 55.5°F13.1°C 47.0°F8.3°C 73% 1.3 mph SW2.1 kmh SW 3.1 mph5.0 kmh 29.68 in1005.1 mb 0.00 in0.0 mm 0.00 in0.0 mm 0.01 in0.3 mm
05:45 AM 55.3°F12.9°C 46.8°F8.2°C 73% 0.8 mph ESE1.3 kmh ESE 3.1 mph5.0 kmh 29.68 in1005.1 mb 0.00 in0.0 mm 0.00 in0.0 mm 0.01 in0.3 mm
05:50 AM 55.0°F12.8°C 46.5°F8.1°C 73% 2.7 mph NE4.3 kmh NE 3.8 mph6.1 kmh 29.68 in1005.1 mb 0.00 in0.0 mm 0.00 in0.0 mm 0.01 in0.3 mm
05:55 AM 54.7°F12.6°C 47.0°F8.3°C 75% 2.6 mph NE4.2 kmh NE 4.5 mph7.2 kmh 29.68 in1005.1 mb 0.00 in0.0 mm 0.00 in0.0 mm 0.01 in0.3 mm
06:00 AM 54.4°F12.4°C 47.3°F8.5°C 77% 2.6 mph N4.2 kmh N 4.5 mph7.2 kmh 29.68 in1005.1 mb 0.00 in0.0 mm 0.00 in0.0 mm 0.01 in0.3 mm
06:05 AM 54.3°F12.4°C 47.3°F8.5°C 77% 1.6 mph E2.6 kmh E 2.2 mph3.5 kmh 29.67 in1004.7 mb 0.00 in0.0 mm 0.00 in0.0 mm 0.01 in0.3 mm
06:10 AM 54.1°F12.3°C 47.3°F8.5°C 78% 2.2 mph NE3.5 kmh NE 3.8 mph6.1 kmh 29.67 in1004.7 mb 0.00 in0.0 mm 0.00 in0.0 mm 0.01 in0.3 mm
06:15 AM 53.8°F12.1°C 47.4°F8.6°C 79% 2.0 mph NNE3.2 kmh NNE 3.1 mph5.0 kmh 29.67 in1004.7 mb 0.00 in0.0 mm 0.00 in0.0 mm 0.01 in0.3 mm
06:20 AM 53.6°F12.0°C 47.3°F8.5°C 79% 2.1 mph NNE3.4 kmh NNE 3.1 mph5.0 kmh 29.67 in1004.7 mb 0.00 in0.0 mm 0.00 in0.0 mm 0.01 in0.3 mm
06:25 AM 53.5°F11.9°C 47.5°F8.6°C 80% 1.5 mph N2.4 kmh N 3.1 mph5.0 kmh 29.68 in1005.1 mb 0.00 in0.0 mm 0.00 in0.0 mm 0.01 in0.3 mm
06:30 AM 53.4°F11.9°C 47.4°F8.6°C 80% 1.8 mph NNE2.9 kmh NNE 3.8 mph6.1 kmh 29.67 in1004.7 mb 0.00 in0.0 mm 0.00 in0.0 mm 0.01 in0.3 mm
06:35 AM 53.2°F11.8°C 47.2°F8.4°C 80% 1.2 mph NNE1.9 kmh NNE 2.2 mph3.5 kmh 29.67 in1004.7 mb 0.00 in0.0 mm 0.00 in0.0 mm 0.01 in0.3 mm
06:40 AM 53.1°F11.7°C 47.1°F8.4°C 80% 2.2 mph NE3.5 kmh NE 4.5 mph7.2 kmh 29.67 in1004.7 mb 0.00 in0.0 mm 0.00 in0.0 mm 0.01 in0.3 mm
06:45 AM 52.9°F11.6°C 46.9°F8.3°C 80% 1.6 mph N2.6 kmh N 3.1 mph5.0 kmh 29.68 in1005.1 mb 0.00 in0.0 mm 0.00 in0.0 mm 0.01 in0.3 mm
06:50 AM 52.7°F11.5°C 46.7°F8.2°C 80% 2.1 mph NNE3.4 kmh NNE 3.8 mph6.1 kmh 29.68 in1005.1 mb 0.00 in0.0 mm 0.00 in0.0 mm 0.01 in0.3 mm
06:55 AM 52.7°F11.5°C 46.8°F8.2°C 80% 1.2 mph NE1.9 kmh NE 2.2 mph3.5 kmh 29.68 in1005.1 mb 0.00 in0.0 mm 0.00 in0.0 mm 0.01 in0.3 mm
07:00 AM 52.7°F11.5°C 47.0°F8.3°C 81% 0.8 mph W1.3 kmh W 2.2 mph3.5 kmh 29.68 in1005.1 mb 0.00 in0.0 mm 0.00 in0.0 mm 0.01 in0.3 mm
07:05 AM 52.8°F11.6°C 47.2°F8.4°C 81% 1.7 mph S2.7 kmh S 7.6 mph12.2 kmh 29.68 in1005.1 mb 0.00 in0.0 mm 0.00 in0.0 mm 0.01 in0.3 mm
07:10 AM 53.0°F11.7°C 47.3°F8.5°C 81% 1.3 mph WSW2.1 kmh WSW 3.1 mph5.0 kmh 29.68 in1005.1 mb 0.00 in0.0 mm 0.00 in0.0 mm 0.01 in0.3 mm
07:15 AM 53.2°F11.8°C 47.5°F8.6°C 81% 1.3 mph SE2.1 kmh SE 3.1 mph5.0 kmh 29.68 in1005.1 mb 0.00 in0.0 mm 0.00 in0.0 mm 0.02 in0.5 mm
07:20 AM 53.2°F11.8°C 47.6°F8.7°C 81% 1.5 mph NE2.4 kmh NE 3.1 mph5.0 kmh 29.68 in1005.1 mb 0.00 in0.0 mm 0.00 in0.0 mm 0.02 in0.5 mm
07:25 AM 53.1°F11.7°C 47.5°F8.6°C 81% 1.8 mph NE2.9 kmh NE 3.8 mph6.1 kmh 29.69 in1005.4 mb 0.00 in0.0 mm 0.00 in0.0 mm 0.02 in0.5 mm
07:30 AM 53.1°F11.7°C 47.4°F8.6°C 81% 0.8 mph WSW1.3 kmh WSW 3.8 mph6.1 kmh 29.69 in1005.4 mb 0.00 in0.0 mm 0.00 in0.0 mm 0.02 in0.5 mm
07:35 AM 53.1°F11.7°C 47.4°F8.6°C 81% 1.8 mph SSE2.9 kmh SSE 4.5 mph7.2 kmh 29.69 in1005.4 mb 0.00 in0.0 mm 0.00 in0.0 mm 0.02 in0.5 mm
07:40 AM 53.1°F11.7°C 47.4°F8.6°C 81% 1.2 mph NNE1.9 kmh NNE 3.1 mph5.0 kmh 29.69 in1005.4 mb 0.00 in0.0 mm 0.00 in0.0 mm 0.02 in0.5 mm
07:45 AM 53.1°F11.7°C 47.6°F8.7°C 82% 0.8 mph SW1.3 kmh SW 3.8 mph6.1 kmh 29.69 in1005.4 mb 0.00 in0.0 mm 0.00 in0.0 mm 0.02 in0.5 mm
07:50 AM 53.1°F11.7°C 47.8°F8.8°C 82% 2.7 mph S4.3 kmh S 6.0 mph9.7 kmh 29.69 in1005.4 mb 0.00 in0.0 mm 0.00 in0.0 mm 0.02 in0.5 mm
07:55 AM 53.4°F11.9°C 48.0°F8.9°C 82% 2.3 mph SSE3.7 kmh SSE 4.5 mph7.2 kmh 29.68 in1005.1 mb 0.01 in0.3 mm 0.12 in3.0 mm 0.02 in0.5 mm
08:00 AM 53.6°F12.0°C 48.2°F9.0°C 82% 2.3 mph SW3.7 kmh SW 6.0 mph9.7 kmh 29.68 in1005.1 mb 0.01 in0.3 mm 0.00 in0.0 mm 0.02 in0.5 mm
08:05 AM 53.8°F12.1°C 48.4°F9.1°C 82% 2.2 mph SE3.5 kmh SE 3.8 mph6.1 kmh 29.68 in1005.1 mb 0.01 in0.3 mm 0.00 in0.0 mm 0.02 in0.5 mm
08:10 AM 54.2°F12.3°C 48.6°F9.2°C 81% 2.5 mph SE4.0 kmh SE 3.8 mph6.1 kmh 29.68 in1005.1 mb 0.01 in0.3 mm 0.00 in0.0 mm 0.02 in0.5 mm
08:15 AM 54.7°F12.6°C 48.2°F9.0°C 79% 2.3 mph SSE3.7 kmh SSE 5.4 mph8.7 kmh 29.68 in1005.1 mb 0.00 in0.0 mm 0.00 in0.0 mm 0.02 in0.5 mm
08:20 AM 55.0°F12.8°C 47.4°F8.6°C 75% 2.4 mph SSE3.9 kmh SSE 4.5 mph7.2 kmh 29.68 in1005.1 mb 0.00 in0.0 mm 0.00 in0.0 mm 0.02 in0.5 mm
08:25 AM 55.4°F13.0°C 47.4°F8.6°C 74% 2.6 mph S4.2 kmh S 4.5 mph7.2 kmh 29.68 in1005.1 mb 0.00 in0.0 mm 0.00 in0.0 mm 0.02 in0.5 mm
08:30 AM 55.6°F13.1°C 47.4°F8.6°C 74% 2.0 mph SSE3.2 kmh SSE 3.8 mph6.1 kmh 29.68 in1005.1 mb 0.00 in0.0 mm 0.00 in0.0 mm 0.02 in0.5 mm
08:35 AM 55.8°F13.2°C 47.2°F8.4°C 73% 2.4 mph E3.9 kmh E 6.0 mph9.7 kmh 29.68 in1005.1 mb 0.00 in0.0 mm 0.00 in0.0 mm 0.02 in0.5 mm
08:40 AM 55.7°F13.2°C 47.1°F8.4°C 73% 4.4 mph S7.1 kmh S 7.6 mph12.2 kmh 29.68 in1005.1 mb 0.01 in0.3 mm 0.12 in3.0 mm 0.02 in0.5 mm
08:45 AM 55.8°F13.2°C 46.7°F8.2°C 71% 6.2 mph SSE10.0 kmh SSE 10.7 mph17.2 kmh 29.68 in1005.1 mb 0.01 in0.3 mm 0.00 in0.0 mm 0.02 in0.5 mm
08:50 AM 56.2°F13.4°C 46.6°F8.1°C 70% 8.3 mph SE13.4 kmh SE 12.1 mph19.5 kmh 29.67 in1004.7 mb 0.01 in0.3 mm 0.00 in0.0 mm 0.02 in0.5 mm
08:55 AM 56.7°F13.7°C 46.8°F8.2°C 70% 5.2 mph S8.4 kmh S 8.3 mph13.4 kmh 29.68 in1005.1 mb 0.00 in0.0 mm 0.00 in0.0 mm 0.02 in0.5 mm
09:00 AM 57.0°F13.9°C 46.8°F8.2°C 69% 4.6 mph SSW7.4 kmh SSW 9.8 mph15.8 kmh 29.67 in1004.7 mb 0.00 in0.0 mm 0.00 in0.0 mm 0.02 in0.5 mm
09:05 AM 57.3°F14.1°C 46.2°F7.9°C 67% 4.9 mph SW7.9 kmh SW 9.8 mph15.8 kmh 29.68 in1005.1 mb 0.00 in0.0 mm 0.00 in0.0 mm 0.02 in0.5 mm
09:10 AM 57.5°F14.2°C 46.2°F7.9°C 66% 3.6 mph SW5.8 kmh SW 5.4 mph8.7 kmh 29.67 in1004.7 mb 0.00 in0.0 mm 0.00 in0.0 mm 0.02 in0.5 mm
09:15 AM 57.7°F14.3°C 46.6°F8.1°C 66% 0.9 mph SW1.4 kmh SW 3.8 mph6.1 kmh 29.67 in1004.7 mb 0.00 in0.0 mm 0.00 in0.0 mm 0.02 in0.5 mm
09:20 AM 57.7°F14.3°C 47.3°F8.5°C 68% 2.3 mph SE3.7 kmh SE 4.5 mph7.2 kmh 29.67 in1004.7 mb 0.01 in0.3 mm 0.12 in3.0 mm 0.03 in0.8 mm
09:25 AM 57.6°F14.2°C 47.9°F8.8°C 70% 2.6 mph E4.2 kmh E 3.8 mph6.1 kmh 29.68 in1005.1 mb 0.01 in0.3 mm 0.00 in0.0 mm 0.03 in0.8 mm
09:30 AM 57.3°F14.1°C 47.6°F8.7°C 70% 1.1 mph ENE1.8 kmh ENE 2.2 mph3.5 kmh 29.68 in1005.1 mb 0.01 in0.3 mm 0.00 in0.0 mm 0.03 in0.8 mm
09:35 AM 57.1°F13.9°C 47.4°F8.6°C 70% 0.7 mph NW1.1 kmh NW 1.6 mph2.6 kmh 29.68 in1005.1 mb 0.01 in0.3 mm 0.00 in0.0 mm 0.03 in0.8 mm
09:40 AM 56.8°F13.8°C 47.3°F8.5°C 70% 1.9 mph SW3.1 kmh SW 5.4 mph8.7 kmh 29.68 in1005.1 mb 0.01 in0.3 mm 0.00 in0.0 mm 0.03 in0.8 mm
09:45 AM 56.8°F13.8°C 47.5°F8.6°C 71% 2.0 mph S3.2 kmh S 4.5 mph7.2 kmh 29.69 in1005.4 mb 0.01 in0.3 mm 0.00 in0.0 mm 0.03 in0.8 mm
09:50 AM 56.7°F13.7°C 47.5°F8.6°C 71% 0.7 mph SE1.1 kmh SE 3.1 mph5.0 kmh 29.70 in1005.8 mb 0.01 in0.3 mm 0.00 in0.0 mm 0.03 in0.8 mm
09:55 AM 56.6°F13.7°C 47.7°F8.7°C 72% 1.2 mph ESE1.9 kmh ESE 3.1 mph5.0 kmh 29.70 in1005.8 mb 0.01 in0.3 mm 0.00 in0.0 mm 0.03 in0.8 mm
10:00 AM 56.5°F13.6°C 47.5°F8.6°C 72% 1.4 mph SSW2.3 kmh SSW 5.4 mph8.7 kmh 29.70 in1005.8 mb 0.01 in0.3 mm 0.00 in0.0 mm 0.04 in1.0 mm
10:05 AM 56.3°F13.5°C 47.4°F8.6°C 72% 3.1 mph S5.0 kmh S 3.8 mph6.1 kmh 29.69 in1005.4 mb 0.01 in0.3 mm 0.00 in0.0 mm 0.04 in1.0 mm
10:10 AM 56.4°F13.6°C 47.1°F8.4°C 71% 2.3 mph SSW3.7 kmh SSW 3.8 mph6.1 kmh 29.69 in1005.4 mb 0.01 in0.3 mm 0.00 in0.0 mm 0.04 in1.0 mm
10:15 AM 56.5°F13.6°C 46.8°F8.2°C 70% 3.9 mph S6.3 kmh S 6.0 mph9.7 kmh 29.69 in1005.4 mb 0.01 in0.3 mm 0.00 in0.0 mm 0.04 in1.0 mm
10:20 AM 56.7°F13.7°C 46.8°F8.2°C 70% 3.2 mph S5.1 kmh S 6.0 mph9.7 kmh 29.69 in1005.4 mb 0.01 in0.3 mm 0.00 in0.0 mm 0.04 in1.0 mm
10:25 AM 56.7°F13.7°C 46.5°F8.1°C 69% 4.0 mph SW6.4 kmh SW 6.9 mph11.1 kmh 29.69 in1005.4 mb 0.01 in0.3 mm 0.00 in0.0 mm 0.04 in1.0 mm
10:30 AM 56.9°F13.8°C 46.2°F7.9°C 67% 3.0 mph SW4.8 kmh SW 6.0 mph9.7 kmh 29.69 in1005.4 mb 0.01 in0.3 mm 0.00 in0.0 mm 0.04 in1.0 mm
10:35 AM 57.0°F13.9°C 46.3°F7.9°C 67% 3.5 mph SSW5.6 kmh SSW 5.4 mph8.7 kmh 29.70 in1005.8 mb 0.00 in0.0 mm 0.00 in0.0 mm 0.04 in1.0 mm
10:40 AM 57.2°F14.0°C 46.4°F8.0°C 67% 3.2 mph SW5.1 kmh SW 4.5 mph7.2 kmh 29.70 in1005.8 mb 0.00 in0.0 mm 0.00 in0.0 mm 0.04 in1.0 mm
10:45 AM 57.4°F14.1°C 46.2°F7.9°C 66% 5.5 mph S8.9 kmh S 9.2 mph14.8 kmh 29.69 in1005.4 mb 0.00 in0.0 mm 0.00 in0.0 mm 0.04 in1.0 mm
10:50 AM 57.5°F14.2°C 45.9°F7.7°C 65% 2.6 mph SSW4.2 kmh SSW 5.4 mph8.7 kmh 29.69 in1005.4 mb 0.00 in0.0 mm 0.00 in0.0 mm 0.04 in1.0 mm
10:55 AM 57.7°F14.3°C 45.9°F7.7°C 65% 3.6 mph S5.8 kmh S 9.2 mph14.8 kmh 29.69 in1005.4 mb 0.00 in0.0 mm 0.00 in0.0 mm 0.04 in1.0 mm
11:00 AM 57.8°F14.3°C 45.4°F7.4°C 63% 3.8 mph S6.1 kmh S 6.9 mph11.1 kmh 29.69 in1005.4 mb 0.00 in0.0 mm 0.00 in0.0 mm 0.04 in1.0 mm
11:05 AM 58.0°F14.4°C 45.5°F7.5°C 63% 1.7 mph SSW2.7 kmh SSW 3.8 mph6.1 kmh 29.69 in1005.4 mb 0.00 in0.0 mm 0.00 in0.0 mm 0.04 in1.0 mm
11:10 AM 58.1°F14.5°C 45.6°F7.6°C 63% 2.3 mph SSW3.7 kmh SSW 3.8 mph6.1 kmh 29.68 in1005.1 mb 0.00 in0.0 mm 0.00 in0.0 mm 0.04 in1.0 mm
11:15 AM 58.3°F14.6°C 45.5°F7.5°C 62% 2.7 mph SW4.3 kmh SW 3.8 mph6.1 kmh 29.68 in1005.1 mb 0.00 in0.0 mm 0.00 in0.0 mm 0.04 in1.0 mm
11:20 AM 58.3°F14.6°C 45.3°F7.4°C 62% 1.4 mph SW2.3 kmh SW 3.1 mph5.0 kmh 29.69 in1005.4 mb 0.00 in0.0 mm 0.00 in0.0 mm 0.04 in1.0 mm
11:25 AM 58.3°F14.6°C 45.3°F7.4°C 62% 2.0 mph SW3.2 kmh SW 3.1 mph5.0 kmh 29.69 in1005.4 mb 0.00 in0.0 mm 0.00 in0.0 mm 0.04 in1.0 mm
11:30 AM 58.3°F14.6°C 45.3°F7.4°C 62% 1.4 mph SW2.3 kmh SW 3.8 mph6.1 kmh 29.69 in1005.4 mb 0.00 in0.0 mm 0.00 in0.0 mm 0.04 in1.0 mm
11:35 AM 58.1°F14.5°C 45.4°F7.4°C 63% 2.3 mph NE3.7 kmh NE 4.5 mph7.2 kmh 29.68 in1005.1 mb 0.00 in0.0 mm 0.00 in0.0 mm 0.04 in1.0 mm
11:40 AM 57.9°F14.4°C 46.3°F7.9°C 65% 4.7 mph 7.6 kmh 6.0 mph9.7 kmh 29.68 in1005.1 mb 0.01 in0.3 mm 0.12 in3.0 mm 0.04 in1.0 mm
11:45 AM 57.3°F14.1°C 46.6°F8.1°C 67% 4.8 mph N7.7 kmh N 5.4 mph8.7 kmh 29.68 in1005.1 mb 0.01 in0.3 mm 0.00 in0.0 mm 0.05 in1.3 mm
11:50 AM 56.6°F13.7°C 46.6°F8.1°C 69% 4.2 mph 6.8 kmh 5.4 mph8.7 kmh 29.68 in1005.1 mb 0.01 in0.3 mm 0.00 in0.0 mm 0.05 in1.3 mm
11:55 AM 56.1°F13.4°C 46.6°F8.1°C 70% 4.5 mph N7.2 kmh N 6.9 mph11.1 kmh 29.68 in1005.1 mb 0.02 in0.5 mm 0.12 in3.0 mm 0.05 in1.3 mm
12:00 PM 55.6°F13.1°C 46.5°F8.1°C 71% 4.9 mph N7.9 kmh N 6.9 mph11.1 kmh 29.67 in1004.7 mb 0.02 in0.5 mm 0.00 in0.0 mm 0.06 in1.5 mm
12:05 PM 55.4°F13.0°C 46.5°F8.1°C 72% 3.8 mph NE6.1 kmh NE 4.5 mph7.2 kmh 29.68 in1005.1 mb 0.02 in0.5 mm 0.00 in0.0 mm 0.06 in1.5 mm
12:10 PM 55.2°F12.9°C 46.5°F8.1°C 73% 2.5 mph NE4.0 kmh NE 4.5 mph7.2 kmh 29.68 in1005.1 mb 0.02 in0.5 mm 0.00 in0.0 mm 0.06 in1.5 mm
12:15 PM 55.0°F12.8°C 46.9°F8.3°C 74% 1.5 mph S2.4 kmh S 3.1 mph5.0 kmh 29.68 in1005.1 mb 0.02 in0.5 mm 0.00 in0.0 mm 0.06 in1.5 mm
12:20 PM 55.0°F12.8°C 47.1°F8.4°C 74% 2.2 mph NE3.5 kmh NE 3.8 mph6.1 kmh 29.67 in1004.7 mb 0.02 in0.5 mm 0.00 in0.0 mm 0.06 in1.5 mm
12:25 PM 55.2°F12.9°C 47.7°F8.7°C 76% 2.7 mph NE4.3 kmh NE 3.8 mph6.1 kmh 29.67 in1004.7 mb 0.02 in0.5 mm 0.00 in0.0 mm 0.06 in1.5 mm
12:30 PM 55.2°F12.9°C 48.1°F8.9°C 77% 0.8 mph N1.3 kmh N 2.2 mph3.5 kmh 29.67 in1004.7 mb 0.02 in0.5 mm 0.00 in0.0 mm 0.06 in1.5 mm
12:35 PM 55.2°F12.9°C 48.1°F8.9°C 77% 1.2 mph NE1.9 kmh NE 2.2 mph3.5 kmh 29.67 in1004.7 mb 0.02 in0.5 mm 0.00 in0.0 mm 0.06 in1.5 mm
12:40 PM 55.2°F12.9°C 48.1°F8.9°C 77% 1.3 mph ESE2.1 kmh ESE 2.2 mph3.5 kmh 29.67 in1004.7 mb 0.01 in0.3 mm 0.00 in0.0 mm 0.06 in1.5 mm
12:45 PM 55.3°F12.9°C 48.4°F9.1°C 78% 0.7 mph WSW1.1 kmh WSW 2.2 mph3.5 kmh 29.67 in1004.7 mb 0.01 in0.3 mm 0.00 in0.0 mm 0.06 in1.5 mm
12:50 PM 55.4°F13.0°C 48.7°F9.3°C 78% 1.6 mph NE2.6 kmh NE 2.2 mph3.5 kmh 29.66 in1004.4 mb 0.01 in0.3 mm 0.00 in0.0 mm 0.06 in1.5 mm
12:55 PM 55.4°F13.0°C 48.6°F9.2°C 78% 0.8 mph N1.3 kmh N 2.2 mph3.5 kmh 29.66 in1004.4 mb 0.00 in0.0 mm 0.00 in0.0 mm 0.06 in1.5 mm
01:00 PM 55.4°F13.0°C 48.3°F9.1°C 77% 1.1 mph NE1.8 kmh NE 2.2 mph3.5 kmh 29.66 in1004.4 mb 0.00 in0.0 mm 0.00 in0.0 mm 0.06 in1.5 mm
01:05 PM 55.4°F13.0°C 48.4°F9.1°C 77% 2.2 mph NE3.5 kmh NE 3.8 mph6.1 kmh 29.65 in1004.1 mb 0.00 in0.0 mm 0.00 in0.0 mm 0.06 in1.5 mm
01:10 PM 55.5°F13.1°C 48.8°F9.3°C 78% 2.7 mph NE4.3 kmh NE 3.8 mph6.1 kmh 29.65 in1004.1 mb 0.00 in0.0 mm 0.00 in0.0 mm 0.06 in1.5 mm
01:15 PM 55.7°F13.2°C 49.3°F9.6°C 79% 3.9 mph NNE6.3 kmh NNE 6.0 mph9.7 kmh 29.64 in1003.7 mb 0.00 in0.0 mm 0.00 in0.0 mm 0.06 in1.5 mm
01:20 PM 55.8°F13.2°C 49.4°F9.7°C 79% 3.0 mph N4.8 kmh N 6.0 mph9.7 kmh 29.64 in1003.7 mb 0.00 in0.0 mm 0.00 in0.0 mm 0.06 in1.5 mm
01:25 PM 55.9°F13.3°C 49.5°F9.7°C 79% 1.8 mph 2.9 kmh 3.1 mph5.0 kmh 29.64 in1003.7 mb 0.00 in0.0 mm 0.00 in0.0 mm 0.06 in1.5 mm
01:30 PM 55.9°F13.3°C 49.5°F9.7°C 79% 1.4 mph WNW2.3 kmh WNW 3.1 mph5.0 kmh 29.64 in1003.7 mb 0.00 in0.0 mm 0.00 in0.0 mm 0.06 in1.5 mm
01:35 PM 56.0°F13.3°C 49.4°F9.7°C 79% 3.0 mph SW4.8 kmh SW 4.5 mph7.2 kmh 29.64 in1003.7 mb 0.00 in0.0 mm 0.00 in0.0 mm 0.06 in1.5 mm
01:40 PM 56.1°F13.4°C 49.3°F9.6°C 78% 2.9 mph WSW4.7 kmh WSW 4.5 mph7.2 kmh 29.64 in1003.7 mb 0.00 in0.0 mm 0.00 in0.0 mm 0.06 in1.5 mm
01:45 PM 56.2°F13.4°C 49.2°F9.6°C 77% 0.6 mph W1.0 kmh W 2.2 mph3.5 kmh 29.64 in1003.7 mb 0.00 in0.0 mm 0.00 in0.0 mm 0.06 in1.5 mm
01:50 PM 56.5°F13.6°C 49.4°F9.7°C 77% Calm Calm 0.7 mph1.1 kmh 29.63 in1003.4 mb 0.00 in0.0 mm 0.00 in0.0 mm 0.06 in1.5 mm
01:55 PM 56.8°F13.8°C 48.9°F9.4°C 75% 0.1 mph 0.2 kmh 1.6 mph2.6 kmh 29.62 in1003.0 mb 0.00 in0.0 mm 0.00 in0.0 mm 0.06 in1.5 mm
02:00 PM 57.1°F13.9°C 48.8°F9.3°C 74% 0.6 mph NNW1.0 kmh NNW 1.6 mph2.6 kmh 29.62 in1003.0 mb 0.00 in0.0 mm 0.00 in0.0 mm 0.06 in1.5 mm
02:05 PM 57.6°F14.2°C 48.7°F9.3°C 72% 0.8 mph SW1.3 kmh SW 3.1 mph5.0 kmh 29.62 in1003.0 mb 0.00 in0.0 mm 0.00 in0.0 mm 0.06 in1.5 mm
02:10 PM 57.9°F14.4°C 48.7°F9.3°C 71% 1.4 mph WSW2.3 kmh WSW 3.1 mph5.0 kmh 29.62 in1003.0 mb 0.00 in0.0 mm 0.00 in0.0 mm 0.06 in1.5 mm
02:15 PM 58.1°F14.5°C 48.7°F9.3°C 71% 0.9 mph SW1.4 kmh SW 2.2 mph3.5 kmh 29.62 in1003.0 mb 0.00 in0.0 mm 0.00 in0.0 mm 0.06 in1.5 mm
02:20 PM 58.4°F14.7°C 48.9°F9.4°C 71% 1.7 mph WSW2.7 kmh WSW 3.8 mph6.1 kmh 29.61 in1002.7 mb 0.00 in0.0 mm 0.00 in0.0 mm 0.06 in1.5 mm
02:25 PM 58.4°F14.7°C 49.1°F9.5°C 71% 1.2 mph WSW1.9 kmh WSW 2.2 mph3.5 kmh 29.61 in1002.7 mb 0.00 in0.0 mm 0.00 in0.0 mm 0.06 in1.5 mm
02:30 PM 58.3°F14.6°C 49.1°F9.5°C 71% 1.5 mph NW2.4 kmh NW 3.1 mph5.0 kmh 29.61 in1002.7 mb 0.00 in0.0 mm 0.00 in0.0 mm 0.06 in1.5 mm
02:35 PM 58.3°F14.6°C 49.2°F9.6°C 72% Calm Calm 0.7 mph1.1 kmh 29.61 in1002.7 mb 0.00 in0.0 mm 0.00 in0.0 mm 0.06 in1.5 mm
02:40 PM 58.3°F14.6°C 48.9°F9.4°C 71% 0.5 mph WSW0.8 kmh WSW 1.6 mph2.6 kmh 29.60 in1002.4 mb 0.00 in0.0 mm 0.00 in0.0 mm 0.06 in1.5 mm
02:45 PM 58.4°F14.7°C 48.8°F9.3°C 70% 0.8 mph W1.3 kmh W 2.2 mph3.5 kmh 29.61 in1002.7 mb 0.00 in0.0 mm 0.00 in0.0 mm 0.06 in1.5 mm
02:50 PM 58.5°F14.7°C 48.8°F9.3°C 70% 0.8 mph WSW1.3 kmh WSW 2.2 mph3.5 kmh 29.61 in1002.7 mb 0.00 in0.0 mm 0.00 in0.0 mm 0.06 in1.5 mm
02:55 PM 58.3°F14.6°C 49.0°F9.4°C 71% 1.0 mph WSW1.6 kmh WSW 2.2 mph3.5 kmh 29.61 in1002.7 mb 0.00 in0.0 mm 0.00 in0.0 mm 0.06 in1.5 mm
03:00 PM 58.5°F14.7°C 49.1°F9.5°C 71% 2.1 mph WNW3.4 kmh WNW 3.8 mph6.1 kmh 29.61 in1002.7 mb 0.00 in0.0 mm 0.00 in0.0 mm 0.06 in1.5 mm
03:05 PM 58.5°F14.7°C 49.1°F9.5°C 71% 0.7 mph NW1.1 kmh NW 1.6 mph2.6 kmh 29.60 in1002.4 mb 0.00 in0.0 mm 0.00 in0.0 mm 0.06 in1.5 mm
03:10 PM 58.3°F14.6°C 48.7°F9.3°C 70% 0.6 mph WNW1.0 kmh WNW 1.6 mph2.6 kmh 29.61 in1002.7 mb 0.00 in0.0 mm 0.00 in0.0 mm 0.06 in1.5 mm
03:15 PM 58.0°F14.4°C 48.3°F9.1°C 70% 0.3 mph W0.5 kmh W 1.6 mph2.6 kmh 29.61 in1002.7 mb 0.00 in0.0 mm 0.00 in0.0 mm 0.06 in1.5 mm
03:20 PM 57.7°F14.3°C 48.0°F8.9°C 70% 0.6 mph ENE1.0 kmh ENE 1.6 mph2.6 kmh 29.61 in1002.7 mb 0.00 in0.0 mm 0.00 in0.0 mm 0.06 in1.5 mm
03:25 PM 57.6°F14.2°C 47.9°F8.8°C 70% Calm Calm 0.7 mph1.1 kmh 29.61 in1002.7 mb 0.00 in0.0 mm 0.00 in0.0 mm 0.06 in1.5 mm
03:30 PM 57.3°F14.1°C 47.6°F8.7°C 70% 0.3 mph NE0.5 kmh NE 2.2 mph3.5 kmh 29.61 in1002.7 mb 0.00 in0.0 mm 0.00 in0.0 mm 0.06 in1.5 mm
03:35 PM 56.9°F13.8°C 47.2°F8.4°C 70% 2.3 mph NE3.7 kmh NE 3.8 mph6.1 kmh 29.61 in1002.7 mb 0.00 in0.0 mm 0.00 in0.0 mm 0.06 in1.5 mm
03:40 PM 56.3°F13.5°C 46.7°F8.2°C 70% 2.1 mph 3.4 kmh 3.8 mph6.1 kmh 29.61 in1002.7 mb 0.00 in0.0 mm 0.00 in0.0 mm 0.06 in1.5 mm
03:45 PM 55.8°F13.2°C 46.1°F7.8°C 70% 2.1 mph N3.4 kmh N 4.5 mph7.2 kmh 29.62 in1003.0 mb 0.00 in0.0 mm 0.00 in0.0 mm 0.06 in1.5 mm
03:50 PM 55.3°F12.9°C 45.7°F7.6°C 70% 2.2 mph NE3.5 kmh NE 4.5 mph7.2 kmh 29.62 in1003.0 mb 0.00 in0.0 mm 0.00 in0.0 mm 0.06 in1.5 mm
03:55 PM 54.9°F12.7°C 45.7°F7.6°C 71% 2.9 mph NE4.7 kmh NE 3.8 mph6.1 kmh 29.62 in1003.0 mb 0.00 in0.0 mm 0.00 in0.0 mm 0.06 in1.5 mm
04:00 PM 54.3°F12.4°C 46.2°F7.9°C 74% 4.0 mph NNE6.4 kmh NNE 5.4 mph8.7 kmh 29.62 in1003.0 mb 0.00 in0.0 mm 0.00 in0.0 mm 0.06 in1.5 mm
04:05 PM 54.1°F12.3°C 46.0°F7.8°C 74% 4.5 mph NE7.2 kmh NE 5.4 mph8.7 kmh 29.62 in1003.0 mb 0.00 in0.0 mm 0.00 in0.0 mm 0.06 in1.5 mm
04:10 PM 53.8°F12.1°C 46.1°F7.8°C 75% 2.9 mph NE4.7 kmh NE 5.4 mph8.7 kmh 29.62 in1003.0 mb 0.00 in0.0 mm 0.00 in0.0 mm 0.06 in1.5 mm
04:15 PM 53.3°F11.8°C 46.0°F7.8°C 76% 1.2 mph ENE1.9 kmh ENE 3.1 mph5.0 kmh 29.62 in1003.0 mb 0.00 in0.0 mm 0.00 in0.0 mm 0.06 in1.5 mm
04:20 PM 53.1°F11.7°C 45.7°F7.6°C 76% 1.9 mph NNE3.1 kmh NNE 3.1 mph5.0 kmh 29.61 in1002.7 mb 0.00 in0.0 mm 0.00 in0.0 mm 0.06 in1.5 mm
04:25 PM 52.6°F11.4°C 45.2°F7.3°C 76% 1.4 mph N2.3 kmh N 3.1 mph5.0 kmh 29.61 in1002.7 mb 0.00 in0.0 mm 0.00 in0.0 mm 0.06 in1.5 mm
04:30 PM 52.2°F11.2°C 44.7°F7.1°C 75% 2.5 mph NE4.0 kmh NE 3.8 mph6.1 kmh 29.61 in1002.7 mb 0.00 in0.0 mm 0.00 in0.0 mm 0.06 in1.5 mm
04:35 PM 51.7°F10.9°C 44.4°F6.9°C 76% 2.5 mph NNE4.0 kmh NNE 3.8 mph6.1 kmh 29.62 in1003.0 mb 0.00 in0.0 mm 0.00 in0.0 mm 0.06 in1.5 mm
04:40 PM 51.3°F10.7°C 44.3°F6.8°C 77% 2.4 mph ENE3.9 kmh ENE 4.5 mph7.2 kmh 29.62 in1003.0 mb 0.00 in0.0 mm 0.00 in0.0 mm 0.06 in1.5 mm
04:45 PM 50.9°F10.5°C 44.0°F6.7°C 77% 3.3 mph NE5.3 kmh NE 4.5 mph7.2 kmh 29.61 in1002.7 mb 0.00 in0.0 mm 0.00 in0.0 mm 0.06 in1.5 mm
04:50 PM 50.5°F10.3°C 43.9°F6.6°C 78% 5.1 mph NNE8.2 kmh NNE 6.9 mph11.1 kmh 29.61 in1002.7 mb 0.00 in0.0 mm 0.00 in0.0 mm 0.06 in1.5 mm
04:55 PM 50.4°F10.2°C 44.1°F6.7°C 79% 3.1 mph NNE5.0 kmh NNE 5.4 mph8.7 kmh 29.61 in1002.7 mb 0.00 in0.0 mm 0.00 in0.0 mm 0.06 in1.5 mm
05:00 PM 50.2°F10.1°C 44.3°F6.8°C 80% 2.3 mph 3.7 kmh 3.8 mph6.1 kmh 29.61 in1002.7 mb 0.00 in0.0 mm 0.00 in0.0 mm 0.06 in1.5 mm
05:05 PM 50.1°F10.1°C 44.1°F6.7°C 80% 3.2 mph ENE5.1 kmh ENE 4.5 mph7.2 kmh 29.61 in1002.7 mb 0.00 in0.0 mm 0.00 in0.0 mm 0.06 in1.5 mm
05:10 PM 49.7°F9.8°C 43.8°F6.6°C 80% 3.2 mph NE5.1 kmh NE 5.4 mph8.7 kmh 29.61 in1002.7 mb 0.00 in0.0 mm 0.00 in0.0 mm 0.06 in1.5 mm
05:15 PM 49.4°F9.7°C 43.5°F6.4°C 80% 1.8 mph NE2.9 kmh NE 3.1 mph5.0 kmh 29.61 in1002.7 mb 0.00 in0.0 mm 0.00 in0.0 mm 0.06 in1.5 mm
05:20 PM 49.2°F9.6°C 43.3°F6.3°C 80% 0.8 mph NE1.3 kmh NE 3.1 mph5.0 kmh 29.62 in1003.0 mb 0.00 in0.0 mm 0.00 in0.0 mm 0.06 in1.5 mm
05:25 PM 49.0°F9.4°C 43.1°F6.2°C 80% 0.1 mph SE0.2 kmh SE 1.6 mph2.6 kmh 29.62 in1003.0 mb 0.00 in0.0 mm 0.00 in0.0 mm 0.06 in1.5 mm
05:30 PM 48.9°F9.4°C 43.0°F6.1°C 80% 0.9 mph E1.4 kmh E 2.2 mph3.5 kmh 29.61 in1002.7 mb 0.00 in0.0 mm 0.00 in0.0 mm 0.06 in1.5 mm
05:35 PM 48.8°F9.3°C 42.9°F6.1°C 80% 3.3 mph NNE5.3 kmh NNE 4.5 mph7.2 kmh 29.62 in1003.0 mb 0.00 in0.0 mm 0.00 in0.0 mm 0.06 in1.5 mm
05:40 PM 48.7°F9.3°C 42.8°F6.0°C 80% 3.2 mph NNE5.1 kmh NNE 4.5 mph7.2 kmh 29.62 in1003.0 mb 0.00 in0.0 mm 0.00 in0.0 mm 0.06 in1.5 mm
05:45 PM 48.7°F9.3°C 43.0°F6.1°C 81% 4.3 mph NE6.9 kmh NE 6.0 mph9.7 kmh 29.62 in1003.0 mb 0.00 in0.0 mm 0.00 in0.0 mm 0.06 in1.5 mm
05:50 PM 48.6°F9.2°C 43.0°F6.1°C 81% 3.9 mph NNE6.3 kmh NNE 6.0 mph9.7 kmh 29.62 in1003.0 mb 0.00 in0.0 mm 0.00 in0.0 mm 0.06 in1.5 mm
05:55 PM 48.4°F9.1°C 42.8°F6.0°C 81% 3.7 mph NNE6.0 kmh NNE 4.5 mph7.2 kmh 29.62 in1003.0 mb 0.00 in0.0 mm 0.00 in0.0 mm 0.06 in1.5 mm
06:00 PM 48.2°F9.0°C 42.6°F5.9°C 81% 3.6 mph NNE5.8 kmh NNE 6.0 mph9.7 kmh 29.63 in1003.4 mb 0.00 in0.0 mm 0.00 in0.0 mm 0.06 in1.5 mm
06:05 PM 48.0°F8.9°C 42.5°F5.8°C 81% 2.2 mph NE3.5 kmh NE 2.2 mph3.5 kmh 29.62 in1003.0 mb 0.00 in0.0 mm 0.00 in0.0 mm 0.06 in1.5 mm
06:10 PM 47.9°F8.8°C 42.4°F5.8°C 81% 2.3 mph NE3.7 kmh NE 3.8 mph6.1 kmh 29.63 in1003.4 mb 0.00 in0.0 mm 0.00 in0.0 mm 0.06 in1.5 mm
06:15 PM 47.7°F8.7°C 42.2°F5.7°C 81% 3.4 mph NE5.5 kmh NE 4.5 mph7.2 kmh 29.63 in1003.4 mb 0.00 in0.0 mm 0.00 in0.0 mm 0.06 in1.5 mm
06:20 PM 47.5°F8.6°C 42.0°F5.6°C 81% 3.7 mph NNE6.0 kmh NNE 5.4 mph8.7 kmh 29.63 in1003.4 mb 0.00 in0.0 mm 0.00 in0.0 mm 0.06 in1.5 mm
06:25 PM 47.5°F8.6°C 41.9°F5.5°C 81% 2.8 mph WNW4.5 kmh WNW 4.5 mph7.2 kmh 29.63 in1003.4 mb 0.00 in0.0 mm 0.00 in0.0 mm 0.06 in1.5 mm
06:30 PM 47.4°F8.6°C 42.2°F5.7°C 82% 3.1 mph NE5.0 kmh NE 5.4 mph8.7 kmh 29.63 in1003.4 mb 0.00 in0.0 mm 0.00 in0.0 mm 0.06 in1.5 mm
06:35 PM 47.3°F8.5°C 42.1°F5.6°C 82% 3.1 mph NE5.0 kmh NE 5.4 mph8.7 kmh 29.63 in1003.4 mb 0.00 in0.0 mm 0.00 in0.0 mm 0.06 in1.5 mm
06:40 PM 47.3°F8.5°C 42.1°F5.6°C 82% 3.2 mph N5.1 kmh N 4.5 mph7.2 kmh 29.63 in1003.4 mb 0.00 in0.0 mm 0.00 in0.0 mm 0.06 in1.5 mm
06:45 PM 47.1°F8.4°C 41.9°F5.5°C 82% 2.4 mph N3.9 kmh N 4.5 mph7.2 kmh 29.63 in1003.4 mb 0.00 in0.0 mm 0.00 in0.0 mm 0.06 in1.5 mm
06:50 PM 47.1°F8.4°C 41.9°F5.5°C 82% 3.1 mph NE5.0 kmh NE 4.5 mph7.2 kmh 29.63 in1003.4 mb 0.00 in0.0 mm 0.00 in0.0 mm 0.06 in1.5 mm
06:55 PM 46.9°F8.3°C 41.7°F5.4°C 82% 2.4 mph N3.9 kmh N 4.5 mph7.2 kmh 29.63 in1003.4 mb 0.00 in0.0 mm 0.00 in0.0 mm 0.06 in1.5 mm
07:00 PM 47.0°F8.3°C 41.8°F5.4°C 82% 2.4 mph NE3.9 kmh NE 5.4 mph8.7 kmh 29.63 in1003.4 mb 0.00 in0.0 mm 0.00 in0.0 mm 0.06 in1.5 mm
07:05 PM 47.1°F8.4°C 41.9°F5.5°C 82% 1.5 mph NNE2.4 kmh NNE 3.1 mph5.0 kmh 29.63 in1003.4 mb 0.00 in0.0 mm 0.00 in0.0 mm 0.06 in1.5 mm
07:10 PM 47.3°F8.5°C 42.2°F5.7°C 82% 0.5 mph SSW0.8 kmh SSW 2.2 mph3.5 kmh 29.63 in1003.4 mb 0.00 in0.0 mm 0.00 in0.0 mm 0.06 in1.5 mm
07:15 PM 47.3°F8.5°C 42.4°F5.8°C 83% 1.3 mph SW2.1 kmh SW 2.2 mph3.5 kmh 29.63 in1003.4 mb 0.00 in0.0 mm 0.00 in0.0 mm 0.06 in1.5 mm
07:20 PM 47.3°F8.5°C 42.4°F5.8°C 83% 3.7 mph SSW6.0 kmh SSW 10.7 mph17.2 kmh 29.64 in1003.7 mb 0.00 in0.0 mm 0.00 in0.0 mm 0.06 in1.5 mm
07:25 PM 48.2°F9.0°C 43.4°F6.3°C 83% 6.6 mph SW10.6 kmh SW 10.7 mph17.2 kmh 29.63 in1003.4 mb 0.00 in0.0 mm 0.00 in0.0 mm 0.06 in1.5 mm
07:30 PM 50.0°F10.0°C 45.8°F7.7°C 85% 8.7 mph SSW14.0 kmh SSW 14.5 mph23.3 kmh 29.63 in1003.4 mb 0.00 in0.0 mm 0.00 in0.0 mm 0.06 in1.5 mm
07:35 PM 53.0°F11.7°C 48.7°F9.3°C 85% 11.2 mph SW18.0 kmh SW 15.2 mph24.5 kmh 29.62 in1003.0 mb 0.00 in0.0 mm 0.00 in0.0 mm 0.06 in1.5 mm
07:40 PM 56.0°F13.3°C 48.9°F9.4°C 77% 12.3 mph S19.8 kmh S 28.9 mph46.5 kmh 29.62 in1003.0 mb 0.00 in0.0 mm 0.00 in0.0 mm 0.06 in1.5 mm
07:45 PM 58.5°F14.7°C 48.1°F8.9°C 68% 14.3 mph SW23.0 kmh SW 22.8 mph36.7 kmh 29.62 in1003.0 mb 0.00 in0.0 mm 0.00 in0.0 mm 0.06 in1.5 mm
07:50 PM 60.2°F15.7°C 47.0°F8.3°C 62% 14.3 mph SSW23.0 kmh SSW 19.0 mph30.6 kmh 29.61 in1002.7 mb 0.00 in0.0 mm 0.00 in0.0 mm 0.06 in1.5 mm
07:55 PM 61.3°F16.3°C 46.8°F8.2°C 59% 12.9 mph SW20.8 kmh SW 18.3 mph29.5 kmh 29.61 in1002.7 mb 0.00 in0.0 mm 0.00 in0.0 mm 0.06 in1.5 mm
08:00 PM 62.1°F16.7°C 46.2°F7.9°C 56% 12.1 mph S19.5 kmh S 18.3 mph29.5 kmh 29.62 in1003.0 mb 0.00 in0.0 mm 0.00 in0.0 mm 0.06 in1.5 mm
08:05 PM 62.4°F16.9°C 46.5°F8.1°C 56% 9.8 mph S15.8 kmh S 13.0 mph20.9 kmh 29.62 in1003.0 mb 0.00 in0.0 mm 0.00 in0.0 mm 0.06 in1.5 mm
08:10 PM 62.6°F17.0°C 46.1°F7.8°C 55% 11.2 mph S18.0 kmh S 16.8 mph27.0 kmh 29.62 in1003.0 mb 0.00 in0.0 mm 0.00 in0.0 mm 0.06 in1.5 mm
08:15 PM 62.8°F17.1°C 45.8°F7.7°C 54% 10.0 mph SSW16.1 kmh SSW 15.2 mph24.5 kmh 29.62 in1003.0 mb 0.00 in0.0 mm 0.00 in0.0 mm 0.06 in1.5 mm
08:20 PM 63.0°F17.2°C 45.6°F7.6°C 53% 10.1 mph SW16.3 kmh SW 14.5 mph23.3 kmh 29.63 in1003.4 mb 0.00 in0.0 mm 0.00 in0.0 mm 0.06 in1.5 mm
08:25 PM 63.0°F17.2°C 45.6°F7.6°C 53% 12.1 mph SW19.5 kmh SW 17.4 mph28.0 kmh 29.63 in1003.4 mb 0.00 in0.0 mm 0.00 in0.0 mm 0.06 in1.5 mm
08:30 PM 63.1°F17.3°C 45.7°F7.6°C 53% 11.6 mph SW18.7 kmh SW 17.4 mph28.0 kmh 29.64 in1003.7 mb 0.00 in0.0 mm 0.00 in0.0 mm 0.06 in1.5 mm
08:35 PM 63.2°F17.3°C 45.8°F7.7°C 53% 10.4 mph SW16.7 kmh SW 15.2 mph24.5 kmh 29.63 in1003.4 mb 0.00 in0.0 mm 0.00 in0.0 mm 0.06 in1.5 mm
08:40 PM 63.3°F17.4°C 45.9°F7.7°C 53% 9.5 mph SW15.3 kmh SW 13.0 mph20.9 kmh 29.64 in1003.7 mb 0.00 in0.0 mm 0.00 in0.0 mm 0.06 in1.5 mm
08:45 PM 63.2°F17.3°C 45.7°F7.6°C 53% 11.3 mph SW18.2 kmh SW 17.4 mph28.0 kmh 29.64 in1003.7 mb 0.00 in0.0 mm 0.00 in0.0 mm 0.06 in1.5 mm
08:50 PM 63.3°F17.4°C 45.9°F7.7°C 53% 12.2 mph SSW19.6 kmh SSW 19.0 mph30.6 kmh 29.64 in1003.7 mb 0.00 in0.0 mm 0.00 in0.0 mm 0.06 in1.5 mm
08:55 PM 63.3°F17.4°C 45.9°F7.7°C 53% 16.6 mph SW26.7 kmh SW 23.5 mph37.8 kmh 29.64 in1003.7 mb 0.00 in0.0 mm 0.00 in0.0 mm 0.06 in1.5 mm
09:00 PM 63.5°F17.5°C 46.1°F7.8°C 53% 17.3 mph SW27.8 kmh SW 23.5 mph37.8 kmh 29.64 in1003.7 mb 0.00 in0.0 mm 0.00 in0.0 mm 0.06 in1.5 mm
09:05 PM 63.6°F17.6°C 46.1°F7.8°C 53% 17.3 mph SW27.8 kmh SW 25.1 mph40.4 kmh 29.64 in1003.7 mb 0.00 in0.0 mm 0.00 in0.0 mm 0.06 in1.5 mm
09:10 PM 63.7°F17.6°C 46.2°F7.9°C 53% 15.8 mph SW25.4 kmh SW 22.1 mph35.6 kmh 29.65 in1004.1 mb 0.00 in0.0 mm 0.00 in0.0 mm 0.06 in1.5 mm
09:15 PM 63.7°F17.6°C 46.2°F7.9°C 53% 13.3 mph SSE21.4 kmh SSE 22.1 mph35.6 kmh 29.65 in1004.1 mb 0.00 in0.0 mm 0.00 in0.0 mm 0.06 in1.5 mm
09:20 PM 63.6°F17.6°C 46.2°F7.9°C 53% 17.1 mph SW27.5 kmh SW 29.8 mph48.0 kmh 29.65 in1004.1 mb 0.00 in0.0 mm 0.00 in0.0 mm 0.06 in1.5 mm
09:25 PM 63.5°F17.5°C 46.2°F7.9°C 53% 16.5 mph SW26.6 kmh SW 23.5 mph37.8 kmh 29.65 in1004.1 mb 0.00 in0.0 mm 0.00 in0.0 mm 0.06 in1.5 mm
09:30 PM 63.5°F17.5°C 46.6°F8.1°C 54% 19.0 mph SSW30.6 kmh SSW 25.1 mph40.4 kmh 29.65 in1004.1 mb 0.00 in0.0 mm 0.00 in0.0 mm 0.06 in1.5 mm
09:35 PM 63.3°F17.4°C 46.5°F8.1°C 54% 20.7 mph SW33.3 kmh SW 26.6 mph42.8 kmh 29.65 in1004.1 mb 0.00 in0.0 mm 0.00 in0.0 mm 0.06 in1.5 mm
09:40 PM 63.2°F17.3°C 46.8°F8.2°C 55% 19.9 mph SW32.0 kmh SW 25.9 mph41.7 kmh 29.65 in1004.1 mb 0.00 in0.0 mm 0.00 in0.0 mm 0.06 in1.5 mm
09:45 PM 63.0°F17.2°C 47.0°F8.3°C 56% 18.6 mph S29.9 kmh S 25.1 mph40.4 kmh 29.66 in1004.4 mb 0.00 in0.0 mm 0.00 in0.0 mm 0.06 in1.5 mm
09:50 PM 62.8°F17.1°C 47.1°F8.4°C 57% 15.7 mph SSW25.3 kmh SSW 25.1 mph40.4 kmh 29.66 in1004.4 mb 0.00 in0.0 mm 0.00 in0.0 mm 0.06 in1.5 mm
09:55 PM 62.5°F16.9°C 47.2°F8.4°C 57% 12.3 mph SSW19.8 kmh SSW 18.3 mph29.5 kmh 29.66 in1004.4 mb 0.00 in0.0 mm 0.00 in0.0 mm 0.06 in1.5 mm
10:00 PM 62.3°F16.8°C 47.3°F8.5°C 58% 15.5 mph SSW24.9 kmh SSW 26.6 mph42.8 kmh 29.66 in1004.4 mb 0.00 in0.0 mm 0.00 in0.0 mm 0.06 in1.5 mm
10:05 PM 62.2°F16.8°C 47.3°F8.5°C 58% 19.7 mph SSW31.7 kmh SSW 24.4 mph39.3 kmh 29.66 in1004.4 mb 0.00 in0.0 mm 0.00 in0.0 mm 0.06 in1.5 mm
10:10 PM 62.2°F16.8°C 47.3°F8.5°C 58% 17.7 mph SW28.5 kmh SW 24.4 mph39.3 kmh 29.66 in1004.4 mb 0.00 in0.0 mm 0.00 in0.0 mm 0.06 in1.5 mm
10:15 PM 62.2°F16.8°C 46.9°F8.3°C 57% 16.8 mph SSW27.0 kmh SSW 25.1 mph40.4 kmh 29.66 in1004.4 mb 0.00 in0.0 mm 0.00 in0.0 mm 0.06 in1.5 mm
10:20 PM 62.2°F16.8°C 46.8°F8.2°C 57% 12.7 mph SSW20.4 kmh SSW 22.1 mph35.6 kmh 29.66 in1004.4 mb 0.00 in0.0 mm 0.00 in0.0 mm 0.06 in1.5 mm
10:25 PM 62.2°F16.8°C 46.8°F8.2°C 57% 14.2 mph SW22.9 kmh SW 25.9 mph41.7 kmh 29.66 in1004.4 mb 0.00 in0.0 mm 0.00 in0.0 mm 0.06 in1.5 mm
10:30 PM 62.1°F16.7°C 46.9°F8.3°C 57% 13.2 mph SSW21.2 kmh SSW 21.3 mph34.3 kmh 29.66 in1004.4 mb 0.00 in0.0 mm 0.00 in0.0 mm 0.06 in1.5 mm
10:35 PM 62.1°F16.7°C 47.1°F8.4°C 58% 11.9 mph SSW19.2 kmh SSW 15.9 mph25.6 kmh 29.66 in1004.4 mb 0.00 in0.0 mm 0.00 in0.0 mm 0.06 in1.5 mm
10:40 PM 61.9°F16.6°C 46.9°F8.3°C 58% 11.5 mph SSW18.5 kmh SSW 16.8 mph27.0 kmh 29.66 in1004.4 mb 0.00 in0.0 mm 0.00 in0.0 mm 0.06 in1.5 mm
10:45 PM 61.8°F16.6°C 47.3°F8.5°C 59% 11.0 mph SSW17.7 kmh SSW 19.0 mph30.6 kmh 29.66 in1004.4 mb 0.00 in0.0 mm 0.00 in0.0 mm 0.06 in1.5 mm
10:50 PM 61.5°F16.4°C 47.3°F8.5°C 60% 9.3 mph SW15.0 kmh SW 12.1 mph19.5 kmh 29.67 in1004.7 mb 0.00 in0.0 mm 0.00 in0.0 mm 0.06 in1.5 mm
10:55 PM 61.4°F16.3°C 47.4°F8.6°C 60% 9.1 mph SW14.6 kmh SW 13.0 mph20.9 kmh 29.67 in1004.7 mb 0.00 in0.0 mm 0.00 in0.0 mm 0.06 in1.5 mm
11:00 PM 61.2°F16.2°C 47.2°F8.4°C 60% 8.0 mph SW12.9 kmh SW 9.8 mph15.8 kmh 29.67 in1004.7 mb 0.00 in0.0 mm 0.00 in0.0 mm 0.06 in1.5 mm
11:05 PM 61.1°F16.2°C 47.1°F8.4°C 60% 10.4 mph SSW16.7 kmh SSW 16.8 mph27.0 kmh 29.67 in1004.7 mb 0.00 in0.0 mm 0.00 in0.0 mm 0.06 in1.5 mm
11:10 PM 61.0°F16.1°C 47.0°F8.3°C 60% 9.4 mph S15.1 kmh S 13.6 mph21.9 kmh 29.67 in1004.7 mb 0.00 in0.0 mm 0.00 in0.0 mm 0.06 in1.5 mm
11:15 PM 60.9°F16.1°C 46.9°F8.3°C 60% 8.8 mph SW14.2 kmh SW 14.5 mph23.3 kmh 29.67 in1004.7 mb 0.00 in0.0 mm 0.00 in0.0 mm 0.06 in1.5 mm
11:20 PM 60.8°F16.0°C 46.8°F8.2°C 60% 11.2 mph SW18.0 kmh SW 15.9 mph25.6 kmh 29.68 in1005.1 mb 0.00 in0.0 mm 0.00 in0.0 mm 0.06 in1.5 mm
11:25 PM 60.8°F16.0°C 47.0°F8.3°C 60% 10.9 mph SSW17.5 kmh SSW 17.4 mph28.0 kmh 29.68 in1005.1 mb 0.00 in0.0 mm 0.00 in0.0 mm 0.06 in1.5 mm
11:30 PM 60.8°F16.0°C 47.3°F8.5°C 61% 11.9 mph SSW19.2 kmh SSW 15.2 mph24.5 kmh 29.68 in1005.1 mb 0.00 in0.0 mm 0.00 in0.0 mm 0.06 in1.5 mm
11:35 PM 60.8°F16.0°C 47.2°F8.4°C 61% 12.2 mph SW19.6 kmh SW 16.8 mph27.0 kmh 29.68 in1005.1 mb 0.00 in0.0 mm 0.00 in0.0 mm 0.06 in1.5 mm
11:40 PM 60.6°F15.9°C 47.1°F8.4°C 61% 9.7 mph SSW15.6 kmh SSW 17.4 mph28.0 kmh 29.68 in1005.1 mb 0.00 in0.0 mm 0.00 in0.0 mm 0.06 in1.5 mm
11:45 PM 60.5°F15.8°C 47.0°F8.3°C 61% 12.0 mph SSW19.3 kmh SSW 15.9 mph25.6 kmh 29.68 in1005.1 mb 0.00 in0.0 mm 0.00 in0.0 mm 0.06 in1.5 mm
11:50 PM 60.4°F15.8°C 46.9°F8.3°C 61% 11.2 mph SW18.0 kmh SW 15.9 mph25.6 kmh 29.68 in1005.1 mb 0.00 in0.0 mm 0.00 in0.0 mm 0.06 in1.5 mm
11:55 PM 60.4°F15.8°C 46.9°F8.3°C 61% 9.5 mph SSW15.3 kmh SSW 13.6 mph21.9 kmh 29.67 in1004.7 mb 0.00 in0.0 mm 0.00 in0.0 mm 0.06 in1.5 mm